createdAt,value
2018-06-13T00:00:19.070Z,17.30
2018-06-13T00:02:47.524Z,17.30
2018-06-13T00:05:16.081Z,17.20
2018-06-13T00:07:44.677Z,17.20
2018-06-13T00:10:13.242Z,17.30
2018-06-13T00:12:41.764Z,17.30
2018-06-13T00:15:10.313Z,17.30
2018-06-13T00:17:38.920Z,17.30
2018-06-13T00:20:07.567Z,17.20
2018-06-13T00:22:36.004Z,17.20
2018-06-13T00:25:04.572Z,17.20
2018-06-13T00:27:33.046Z,17.30
2018-06-13T00:30:01.540Z,17.30
2018-06-13T00:32:30.012Z,17.30
2018-06-13T00:34:58.475Z,17.30
2018-06-13T00:37:27.033Z,17.30
2018-06-13T00:39:55.485Z,17.30
2018-06-13T00:42:24.024Z,17.30
2018-06-13T00:44:52.551Z,17.20
2018-06-13T00:47:21.002Z,17.10
2018-06-13T00:49:50.479Z,17.20
2018-06-13T00:52:19.038Z,17.20
2018-06-13T00:54:47.571Z,17.20
2018-06-13T00:57:15.998Z,17.20
2018-06-13T00:59:44.526Z,17.10
2018-06-13T01:02:12.942Z,17.00
2018-06-13T01:04:41.389Z,17.10
2018-06-13T01:07:09.900Z,17.10
2018-06-13T01:09:38.449Z,17.10
2018-06-13T01:12:06.898Z,17.20
2018-06-13T01:14:35.333Z,17.00
2018-06-13T01:17:03.864Z,16.90
2018-06-13T01:19:32.345Z,16.80
2018-06-13T01:22:00.739Z,16.80
2018-06-13T01:24:29.250Z,16.90
2018-06-13T01:26:57.762Z,17.00
2018-06-13T01:29:26.168Z,16.90
2018-06-13T01:31:54.676Z,16.90
2018-06-13T01:34:23.167Z,16.90
2018-06-13T01:36:51.635Z,16.90
2018-06-13T01:39:20.013Z,17.00
2018-06-13T01:41:48.417Z,17.00
2018-06-13T01:44:16.856Z,17.00
2018-06-13T01:46:45.384Z,16.90
2018-06-13T01:49:13.843Z,16.80
2018-06-13T01:51:42.240Z,16.80
2018-06-13T01:54:10.757Z,16.80
2018-06-13T01:56:39.328Z,16.90
2018-06-13T01:59:07.824Z,16.90
2018-06-13T02:01:36.251Z,16.90
2018-06-13T02:04:04.655Z,16.80
2018-06-13T02:06:33.108Z,16.80
2018-06-13T02:09:01.543Z,16.80
2018-06-13T02:11:29.988Z,16.90
2018-06-13T02:13:58.406Z,16.70
2018-06-13T02:16:26.868Z,16.70
2018-06-13T02:18:55.517Z,16.80
2018-06-13T02:21:23.988Z,16.90
2018-06-13T02:23:52.402Z,16.70
2018-06-13T02:26:20.844Z,16.70
2018-06-13T02:28:49.284Z,16.70
2018-06-13T02:31:17.713Z,16.60
2018-06-13T02:33:46.264Z,16.70
2018-06-13T02:36:14.665Z,16.70
2018-06-13T02:38:43.056Z,16.70
2018-06-13T02:41:11.566Z,16.70
2018-06-13T02:43:40.010Z,16.70
2018-06-13T02:46:08.400Z,16.60
2018-06-13T02:48:36.821Z,16.50
2018-06-13T02:51:05.279Z,16.40
2018-06-13T02:53:33.750Z,16.40
2018-06-13T02:56:02.241Z,16.40
2018-06-13T02:58:30.687Z,16.40
2018-06-13T03:00:59.113Z,16.30
2018-06-13T03:03:27.573Z,16.30
2018-06-13T03:05:56.037Z,16.20
2018-06-13T03:08:24.479Z,16.20
2018-06-13T03:13:21.036Z,16.30
2018-06-13T03:15:49.489Z,16.20
2018-06-13T03:18:17.939Z,16.10
2018-06-13T03:20:46.485Z,16.20
2018-06-13T03:23:14.944Z,16.20
2018-06-13T03:25:43.408Z,16.30
2018-06-13T03:28:11.812Z,16.20
2018-06-13T03:30:40.252Z,16.10
2018-06-13T03:33:08.719Z,16.20
2018-06-13T03:35:37.095Z,16.20
2018-06-13T03:38:05.592Z,16.20
2018-06-13T03:40:33.966Z,16.10
2018-06-13T03:43:02.443Z,16.10
2018-06-13T03:45:30.976Z,16.30
2018-06-13T03:47:59.454Z,16.30
2018-06-13T03:50:27.911Z,16.20
2018-06-13T03:52:56.373Z,16.10
2018-06-13T03:55:24.866Z,16.20
2018-06-13T03:57:53.391Z,16.10
2018-06-13T04:00:21.773Z,16.30
2018-06-13T04:02:50.487Z,16.20
2018-06-13T04:05:18.913Z,16.20
2018-06-13T04:07:47.449Z,16.10
2018-06-13T04:10:15.892Z,16.20
2018-06-13T04:12:44.476Z,16.20
2018-06-13T04:17:41.151Z,16.30
2018-06-13T04:20:09.660Z,16.30
2018-06-13T04:22:38.076Z,16.30
2018-06-13T04:25:08.594Z,16.30
2018-06-13T04:27:37.111Z,16.20
2018-06-13T04:30:05.586Z,16.10
2018-06-13T04:32:34.110Z,16.30
2018-06-13T04:35:02.503Z,16.40
2018-06-13T04:37:30.864Z,16.50
2018-06-13T04:39:59.236Z,16.30
2018-06-13T04:42:27.658Z,16.30
2018-06-13T04:44:56.038Z,16.30
2018-06-13T04:47:24.477Z,16.50
2018-06-13T04:49:53.010Z,16.50
2018-06-13T04:52:21.540Z,16.20
2018-06-13T04:54:49.969Z,16.30
2018-06-13T04:57:18.400Z,16.20
2018-06-13T04:59:46.837Z,16.30
2018-06-13T05:02:15.277Z,16.30
2018-06-13T05:04:43.716Z,16.30
2018-06-13T05:09:40.292Z,16.30
2018-06-13T05:12:08.722Z,16.40
2018-06-13T05:14:37.146Z,16.40
2018-06-13T05:17:05.652Z,16.40
2018-06-13T05:19:34.097Z,16.40
2018-06-13T05:22:02.534Z,16.40
2018-06-13T05:24:30.939Z,16.40
2018-06-13T05:26:59.404Z,16.30
2018-06-13T05:29:27.913Z,16.40
2018-06-13T05:34:24.544Z,16.20
2018-06-13T05:36:52.856Z,16.30
2018-06-13T05:39:21.272Z,16.40
2018-06-13T05:41:49.779Z,16.30
2018-06-13T05:44:18.203Z,16.30
2018-06-13T05:46:46.664Z,16.40
2018-06-13T05:49:15.144Z,16.20
2018-06-13T05:51:43.556Z,16.40
2018-06-13T05:54:11.987Z,16.50
2018-06-13T05:56:40.460Z,16.40
2018-06-13T05:59:09.006Z,16.50
2018-06-13T06:01:37.435Z,16.60
2018-06-13T06:06:34.000Z,16.50
2018-06-13T06:09:02.465Z,16.60
2018-06-13T06:11:30.821Z,16.50
2018-06-13T06:13:59.372Z,16.30
2018-06-13T06:16:27.837Z,16.40
2018-06-13T06:18:56.357Z,16.60
2018-06-13T06:21:24.759Z,16.70
2018-06-13T06:23:53.160Z,16.80
2018-06-13T06:26:21.580Z,16.80
2018-06-13T06:28:50.561Z,16.90
2018-06-13T06:31:19.052Z,16.90
2018-06-13T06:33:47.433Z,16.90
2018-06-13T06:36:15.865Z,17.10
2018-06-13T06:38:44.798Z,17.30
2018-06-13T06:41:13.293Z,17.40
2018-06-13T06:43:41.831Z,17.40
2018-06-13T06:46:10.248Z,17.30
2018-06-13T06:48:38.712Z,17.40
2018-06-13T06:51:07.179Z,17.20
2018-06-13T06:53:35.630Z,17.20
2018-06-13T06:56:04.139Z,17.30
2018-06-13T06:58:32.551Z,17.60
2018-06-13T07:01:00.997Z,17.20
2018-06-13T07:03:29.513Z,17.20
2018-06-13T07:05:57.892Z,17.20
2018-06-13T07:08:26.294Z,17.30
2018-06-13T07:10:54.733Z,17.30
2018-06-13T07:13:23.162Z,17.10
2018-06-13T07:15:51.565Z,17.30
2018-06-13T07:18:20.034Z,17.50
2018-06-13T07:20:48.435Z,17.80
2018-06-13T07:23:16.934Z,18.10
2018-06-13T07:25:45.340Z,18.20
2018-06-13T07:28:13.870Z,18.00
2018-06-13T07:33:10.436Z,18.20
2018-06-13T07:35:38.796Z,18.10
2018-06-13T07:38:07.181Z,18.20
2018-06-13T07:40:35.631Z,18.20
2018-06-13T07:43:04.068Z,18.00
2018-06-13T07:45:32.501Z,18.20
2018-06-13T07:48:00.894Z,18.20
2018-06-13T07:50:29.305Z,18.20
2018-06-13T07:52:57.804Z,18.30
2018-06-13T07:55:26.222Z,18.40
2018-06-13T07:57:54.612Z,18.20
2018-06-13T08:00:23.064Z,18.00
2018-06-13T08:02:51.465Z,17.80
2018-06-13T08:05:19.843Z,17.60
2018-06-13T08:07:48.216Z,17.80
2018-06-13T08:10:16.581Z,18.00
2018-06-13T08:12:45.065Z,18.10
2018-06-13T08:15:13.487Z,18.10
2018-06-13T08:17:41.940Z,18.30
2018-06-13T08:20:10.357Z,18.30
2018-06-13T08:22:38.723Z,18.30
2018-06-13T08:25:07.155Z,18.60
2018-06-13T08:27:41.382Z,18.60
2018-06-13T08:30:09.808Z,18.50
2018-06-13T08:35:06.404Z,18.50
2018-06-13T08:37:34.868Z,18.50
2018-06-13T08:40:03.363Z,18.70
2018-06-13T08:42:31.774Z,19.00
2018-06-13T08:45:00.186Z,19.10
2018-06-13T08:47:28.690Z,18.80
2018-06-13T08:49:57.067Z,19.10
2018-06-13T08:52:25.448Z,19.20
2018-06-13T08:54:53.852Z,18.90
2018-06-13T08:57:22.258Z,19.10
2018-06-13T08:59:50.627Z,19.10
2018-06-13T09:02:19.024Z,18.90
2018-06-13T09:04:47.560Z,18.80
2018-06-13T09:07:16.143Z,19.00
2018-06-13T09:09:44.590Z,19.30
2018-06-13T09:12:13.008Z,19.10
2018-06-13T09:14:41.445Z,19.10
2018-06-13T09:17:09.825Z,18.90
2018-06-13T09:19:38.186Z,18.90
2018-06-13T09:22:06.584Z,18.50
2018-06-13T09:24:35.013Z,18.70
2018-06-13T09:27:03.399Z,18.70
2018-06-13T09:29:31.848Z,19.10
2018-06-13T09:32:00.290Z,18.90
2018-06-13T09:34:28.692Z,18.90
2018-06-13T09:36:57.181Z,18.90
2018-06-13T09:39:25.607Z,18.70
2018-06-13T09:42:02.789Z,18.60
2018-06-13T09:44:31.225Z,19.00
2018-06-13T09:47:06.899Z,18.80
2018-06-13T09:49:28.103Z,18.30
2018-06-13T09:51:56.502Z,18.10
2018-06-13T09:54:24.976Z,17.80
2018-06-13T09:56:53.369Z,17.70
2018-06-13T09:59:21.770Z,17.50
2018-06-13T10:01:55.589Z,17.00
2018-06-13T10:04:24.080Z,17.10
2018-06-13T10:06:52.538Z,17.10
2018-06-13T10:09:20.912Z,17.10
2018-06-13T10:11:49.324Z,17.10
2018-06-13T10:14:17.788Z,17.30
2018-06-13T10:16:46.265Z,17.40
2018-06-13T10:19:14.699Z,17.20
2018-06-13T10:21:43.213Z,17.20
2018-06-13T10:24:11.593Z,17.30
2018-06-13T10:26:40.059Z,17.60
2018-06-13T10:29:08.502Z,17.60
2018-06-13T10:31:37.033Z,17.70
2018-06-13T10:34:05.482Z,17.90
2018-06-13T10:36:33.923Z,18.10
2018-06-13T10:39:02.489Z,18.00
2018-06-13T10:41:30.921Z,18.20
2018-06-13T10:43:59.451Z,18.50
2018-06-13T10:46:28.001Z,18.60
2018-06-13T10:48:56.756Z,18.70
2018-06-13T10:51:25.449Z,18.50
2018-06-13T10:53:54.116Z,18.80
2018-06-13T10:56:22.990Z,18.90
2018-06-13T10:58:51.905Z,19.30
2018-06-13T11:01:20.764Z,19.60
2018-06-13T11:03:49.625Z,19.70
2018-06-13T11:06:18.535Z,19.90
2018-06-13T11:08:47.210Z,20.20
2018-06-13T11:11:15.972Z,20.10
2018-06-13T11:13:44.938Z,20.30
2018-06-13T11:16:13.788Z,20.40
2018-06-13T11:18:42.666Z,20.10
2018-06-13T11:21:11.432Z,20.50
2018-06-13T11:23:40.156Z,20.50
2018-06-13T11:26:08.895Z,20.80
2018-06-13T11:28:37.567Z,20.90
2018-06-13T11:31:06.354Z,21.00
2018-06-13T11:33:35.205Z,21.20
2018-06-13T11:36:03.867Z,21.50
2018-06-13T11:38:32.329Z,21.10
2018-06-13T11:41:00.862Z,20.90
2018-06-13T11:43:29.478Z,20.50
2018-06-13T11:45:58.160Z,20.60
2018-06-13T11:48:26.970Z,20.80
2018-06-13T11:50:55.727Z,20.80
2018-06-13T11:53:24.365Z,21.40
2018-06-13T11:55:53.062Z,21.30
2018-06-13T11:58:21.653Z,21.30
2018-06-13T12:00:50.748Z,20.80
2018-06-13T12:03:19.765Z,20.50
2018-06-13T12:05:48.719Z,20.40
2018-06-13T12:08:17.655Z,20.40
2018-06-13T12:10:46.753Z,20.10
2018-06-13T12:13:15.429Z,20.30
2018-06-13T12:15:43.906Z,20.40
2018-06-13T12:18:12.696Z,20.60
2018-06-13T12:20:41.253Z,20.80
2018-06-13T12:23:10.049Z,20.70
2018-06-13T12:25:38.742Z,20.40
2018-06-13T12:30:35.787Z,20.40
2018-06-13T12:33:04.489Z,20.20
2018-06-13T12:35:33.146Z,20.40
2018-06-13T12:38:01.881Z,20.10
2018-06-13T12:42:58.793Z,20.20
2018-06-13T12:45:27.587Z,19.50
2018-06-13T12:47:56.151Z,19.50
2018-06-13T12:50:24.844Z,19.40
2018-06-13T12:52:53.554Z,19.60
2018-06-13T12:55:22.105Z,19.70
2018-06-13T12:57:50.923Z,19.70
2018-06-13T13:00:19.500Z,19.60
2018-06-13T13:02:48.108Z,19.70
2018-06-13T13:05:16.685Z,19.70
2018-06-13T13:07:45.098Z,19.70
2018-06-13T13:12:42.231Z,19.80
2018-06-13T13:15:10.835Z,19.40
2018-06-13T13:17:39.549Z,19.10
2018-06-13T13:20:08.397Z,19.10
2018-06-13T13:22:37.022Z,19.40
2018-06-13T13:25:05.666Z,20.00
2018-06-13T13:27:34.190Z,20.80
2018-06-13T13:30:02.948Z,21.10
2018-06-13T13:32:31.498Z,21.00
2018-06-13T13:35:00.058Z,21.10
2018-06-13T13:37:28.759Z,20.80
2018-06-13T13:39:57.281Z,20.30
2018-06-13T13:42:26.211Z,20.20
2018-06-13T13:44:54.755Z,19.90
2018-06-13T13:47:23.257Z,20.20
2018-06-13T13:49:51.787Z,20.50
2018-06-13T13:52:20.279Z,20.40
2018-06-13T13:54:48.758Z,20.40
2018-06-13T13:57:17.248Z,20.80
2018-06-13T13:59:45.768Z,21.00
2018-06-13T14:02:14.240Z,20.90
2018-06-13T14:04:42.757Z,21.20
2018-06-13T14:07:11.281Z,21.20
2018-06-13T14:09:39.799Z,20.80
2018-06-13T14:12:08.382Z,20.60
2018-06-13T14:14:36.854Z,20.90
2018-06-13T14:19:33.518Z,20.10
2018-06-13T14:22:02.137Z,19.80
2018-06-13T14:24:30.574Z,19.50
2018-06-13T14:29:27.114Z,19.40
2018-06-13T14:31:55.505Z,19.40
2018-06-13T14:34:23.910Z,19.20
2018-06-13T14:36:52.326Z,18.70
2018-06-13T14:39:20.708Z,18.70
2018-06-13T14:41:49.093Z,19.00
2018-06-13T14:44:17.707Z,19.00
2018-06-13T14:46:46.180Z,18.90
2018-06-13T14:49:14.600Z,19.00
2018-06-13T14:51:44.424Z,19.30
2018-06-13T14:54:12.884Z,19.60
2018-06-13T14:56:41.363Z,19.80
2018-06-13T14:59:09.805Z,19.60
2018-06-13T15:01:38.245Z,19.50
2018-06-13T15:04:06.710Z,19.20
2018-06-13T15:06:35.461Z,19.50
2018-06-13T15:09:06.749Z,19.20
2018-06-13T15:11:35.535Z,19.00
2018-06-13T15:16:33.007Z,19.20
2018-06-13T15:19:01.650Z,19.20
2018-06-13T15:21:30.217Z,19.10
2018-06-13T15:23:58.697Z,19.30
2018-06-13T15:26:27.141Z,19.70
2018-06-13T15:28:55.693Z,19.70
2018-06-13T15:31:24.136Z,19.70
2018-06-13T15:33:52.545Z,19.60
2018-06-13T15:36:20.940Z,19.40
2018-06-13T15:38:49.436Z,19.00
2018-06-13T15:41:19.000Z,18.60
2018-06-13T15:43:47.435Z,18.60
2018-06-13T15:46:15.945Z,18.80
2018-06-13T15:48:44.376Z,18.70
2018-06-13T15:51:12.932Z,18.90
2018-06-13T15:53:41.306Z,19.10
2018-06-13T15:56:09.894Z,19.10
2018-06-13T15:58:38.589Z,19.10
2018-06-13T16:01:07.093Z,19.20
2018-06-13T16:03:35.706Z,19.00
2018-06-13T16:06:04.266Z,18.90
2018-06-13T16:08:32.750Z,19.10
2018-06-13T16:11:01.327Z,19.10
2018-06-13T16:13:29.713Z,19.10
2018-06-13T16:15:58.101Z,19.10
2018-06-13T16:18:26.621Z,18.90
2018-06-13T16:20:55.090Z,18.80
2018-06-13T16:23:23.562Z,18.90
2018-06-13T16:25:52.016Z,18.60
2018-06-13T16:28:20.403Z,18.60
2018-06-13T16:30:48.939Z,18.40
2018-06-13T16:33:17.366Z,18.30
2018-06-13T16:35:45.802Z,18.10
2018-06-13T16:40:42.306Z,18.00
2018-06-13T16:43:10.837Z,17.90
2018-06-13T16:48:07.633Z,18.00
2018-06-13T16:50:48.747Z,18.00
2018-06-13T16:53:28.478Z,17.90
2018-06-13T16:55:56.996Z,17.80
2018-06-13T16:58:25.673Z,17.70
2018-06-13T17:00:54.392Z,17.70
2018-06-13T17:03:22.926Z,17.90
2018-06-13T17:05:51.559Z,18.00
2018-06-13T17:08:20.188Z,18.00
2018-06-13T17:10:48.699Z,18.00
2018-06-13T17:13:17.221Z,18.20
2018-06-13T17:15:45.710Z,18.30
2018-06-13T17:18:14.262Z,18.50
2018-06-13T17:20:42.861Z,18.60
2018-06-13T17:23:11.400Z,18.30
2018-06-13T17:25:39.870Z,18.30
2018-06-13T17:28:08.422Z,18.40
2018-06-13T17:30:36.964Z,18.50
2018-06-13T17:33:05.509Z,18.70
2018-06-13T17:35:34.042Z,18.60
2018-06-13T17:38:02.465Z,18.60
2018-06-13T17:40:31.278Z,18.50
2018-06-13T17:42:59.701Z,18.40
2018-06-13T17:45:28.201Z,18.40
2018-06-13T17:47:56.694Z,18.40
2018-06-13T17:50:25.485Z,18.30
2018-06-13T17:52:54.854Z,18.40
2018-06-13T17:55:24.138Z,18.20
2018-06-13T17:57:53.750Z,18.30
2018-06-13T18:02:51.729Z,18.10
2018-06-13T18:05:20.272Z,18.10
2018-06-13T18:07:48.789Z,18.20
2018-06-13T18:10:17.218Z,18.00
2018-06-13T18:12:45.941Z,18.00
2018-06-13T18:15:15.226Z,17.90
2018-06-13T18:17:44.650Z,17.80
2018-06-13T18:20:14.097Z,17.70
2018-06-13T18:22:43.825Z,17.90
2018-06-13T18:25:13.090Z,17.90
2018-06-13T18:27:42.233Z,18.00
2018-06-13T18:30:11.249Z,18.00
2018-06-13T18:32:39.918Z,18.00
2018-06-13T18:35:08.457Z,17.80
2018-06-13T18:37:37.193Z,17.60
2018-06-13T18:40:06.174Z,17.40
2018-06-13T18:42:35.620Z,17.30
2018-06-13T18:45:05.251Z,17.30
2018-06-13T18:47:35.069Z,17.20
2018-06-13T18:50:04.829Z,17.20
2018-06-13T18:52:34.361Z,17.40
2018-06-13T18:55:04.364Z,17.30
2018-06-13T18:57:34.243Z,17.50
2018-06-13T19:00:03.818Z,17.40
2018-06-13T19:02:32.385Z,17.30
2018-06-13T19:05:01.046Z,17.20
2018-06-13T19:07:29.707Z,17.20
2018-06-13T19:09:58.475Z,17.30
2018-06-13T19:12:27.268Z,17.20
2018-06-13T19:14:55.858Z,17.10
2018-06-13T19:17:24.603Z,17.20
2018-06-13T19:19:53.421Z,17.10
2018-06-13T19:22:23.041Z,17.20
2018-06-13T19:24:53.014Z,17.10
2018-06-13T19:27:22.993Z,17.20
2018-06-13T19:29:52.406Z,17.30
2018-06-13T19:32:23.292Z,17.30
2018-06-13T19:34:52.625Z,17.30
2018-06-13T19:37:22.411Z,17.30
2018-06-13T19:39:51.806Z,17.20
2018-06-13T19:42:23.360Z,17.10
2018-06-13T19:44:53.383Z,17.10
2018-06-13T19:47:27.961Z,17.10
2018-06-13T19:49:56.501Z,17.10
2018-06-13T19:52:31.178Z,17.10
2018-06-13T19:55:05.205Z,17.10
2018-06-13T19:57:33.863Z,17.10
2018-06-13T20:00:02.361Z,17.10
2018-06-13T20:02:36.366Z,17.20
2018-06-13T20:05:10.348Z,17.20
2018-06-13T20:07:39.245Z,17.00
2018-06-13T20:10:07.910Z,16.80
2018-06-13T20:12:44.264Z,16.70
2018-06-13T20:15:18.428Z,16.60
2018-06-13T20:17:52.455Z,16.50
2018-06-13T20:20:21.585Z,16.40
2018-06-13T20:22:50.688Z,16.30
2018-06-13T20:25:24.708Z,16.30
2018-06-13T20:27:58.749Z,16.30
2018-06-13T20:30:32.823Z,16.20
2018-06-13T20:33:01.657Z,16.10
2018-06-13T20:35:30.953Z,16.10
2018-06-13T20:37:59.973Z,16.20
2018-06-13T20:40:29.006Z,16.20
2018-06-13T20:42:57.606Z,16.20
2018-06-13T20:45:26.178Z,16.20
2018-06-13T20:47:54.747Z,16.10
2018-06-13T20:50:23.401Z,16.20
2018-06-13T20:52:52.242Z,16.20
2018-06-13T20:55:21.256Z,16.10
2018-06-13T20:57:50.113Z,16.10
2018-06-13T21:00:18.962Z,16.30
2018-06-13T21:02:47.638Z,16.30
2018-06-13T21:07:44.537Z,16.30
2018-06-13T21:10:13.120Z,16.30
2018-06-13T21:12:41.656Z,16.20
2018-06-13T21:15:10.196Z,16.10
2018-06-13T21:17:38.764Z,16.00
2018-06-13T21:20:07.409Z,16.00
2018-06-13T21:22:35.892Z,16.00
2018-06-13T21:25:04.569Z,16.00
2018-06-13T21:27:33.181Z,16.10
2018-06-13T21:30:01.854Z,16.10
2018-06-13T21:34:58.596Z,16.00
2018-06-13T21:37:27.006Z,16.00
2018-06-13T21:39:55.505Z,16.00
2018-06-13T21:42:23.934Z,16.00
2018-06-13T21:44:52.495Z,16.00
2018-06-13T21:47:20.912Z,16.10
2018-06-13T21:52:17.553Z,16.20
2018-06-13T21:54:46.082Z,16.10
2018-06-13T21:57:14.617Z,16.10
2018-06-13T21:59:43.090Z,16.10
2018-06-13T22:02:11.581Z,16.20
2018-06-13T22:04:40.107Z,16.20
2018-06-13T22:07:08.600Z,16.30
2018-06-13T22:09:37.022Z,16.30
2018-06-13T22:12:05.490Z,16.30
2018-06-13T22:14:33.921Z,16.30
2018-06-13T22:17:02.454Z,16.20
2018-06-13T22:19:30.919Z,16.20
2018-06-13T22:21:59.380Z,16.20
2018-06-13T22:24:27.866Z,16.20
2018-06-13T22:26:56.299Z,16.20
2018-06-13T22:29:24.760Z,16.30
2018-06-13T22:31:53.177Z,16.30
2018-06-13T22:34:21.590Z,16.30
2018-06-13T22:36:49.976Z,16.10
2018-06-13T22:39:18.356Z,16.10
2018-06-13T22:41:46.792Z,16.20
2018-06-13T22:44:15.212Z,16.20
2018-06-13T22:46:43.699Z,16.20
2018-06-13T22:49:12.248Z,16.20
2018-06-13T22:51:40.575Z,16.20
2018-06-13T22:54:09.028Z,16.10
2018-06-13T22:56:37.628Z,16.20
2018-06-13T22:59:06.217Z,16.20
2018-06-13T23:01:34.628Z,16.20
2018-06-13T23:04:03.133Z,16.10
2018-06-13T23:06:31.669Z,16.20
2018-06-13T23:09:00.087Z,16.20
2018-06-13T23:11:28.491Z,16.20
2018-06-13T23:13:56.929Z,16.10
2018-06-13T23:16:25.313Z,16.10
2018-06-13T23:21:21.920Z,15.90
2018-06-13T23:23:50.435Z,15.80
2018-06-13T23:26:18.952Z,15.90
2018-06-13T23:28:47.524Z,15.90
2018-06-13T23:31:15.921Z,15.90
2018-06-13T23:33:44.433Z,16.00
2018-06-13T23:36:12.893Z,15.90
2018-06-13T23:38:41.389Z,15.80
2018-06-13T23:41:09.820Z,15.80
2018-06-13T23:43:38.320Z,15.90
2018-06-13T23:46:06.744Z,15.90
2018-06-13T23:48:35.145Z,15.90
2018-06-13T23:51:03.499Z,16.00
2018-06-13T23:53:31.947Z,16.00
2018-06-13T23:56:00.340Z,15.90
2018-06-13T23:58:28.768Z,15.80
